createdAt,value
2019-04-10T00:01:23.592Z,11.00
2019-04-10T00:03:56.678Z,10.90
2019-04-10T00:06:27.927Z,10.80
2019-04-10T00:08:58.872Z,10.80
2019-04-10T00:11:29.776Z,10.70
2019-04-10T00:14:01.008Z,10.60
2019-04-10T00:16:32.023Z,10.60
2019-04-10T00:19:22.439Z,10.50
2019-04-10T00:21:54.365Z,10.50
2019-04-10T00:24:26.048Z,10.40
2019-04-10T00:26:58.446Z,10.40
2019-04-10T00:29:30.602Z,10.30
2019-04-10T00:32:02.238Z,10.20
2019-04-10T00:34:33.831Z,10.20
2019-04-10T00:37:05.775Z,10.10
2019-04-10T00:39:36.947Z,10.10
2019-04-10T00:42:08.496Z,10.10
2019-04-10T00:44:39.688Z,10.00
2019-04-10T00:47:11.085Z,10.00
2019-04-10T00:49:42.011Z,9.90
2019-04-10T00:52:12.947Z,9.90
2019-04-10T00:54:44.148Z,9.90
2019-04-10T00:57:15.037Z,9.80
2019-04-10T00:59:45.932Z,9.80
2019-04-10T01:02:16.763Z,9.70
2019-04-10T01:04:48.742Z,9.60
2019-04-10T01:07:31.644Z,9.60
2019-04-10T01:09:53.435Z,9.60
2019-04-10T01:12:24.404Z,9.50
2019-04-10T01:14:56.133Z,9.50
2019-04-10T01:17:27.157Z,9.50
2019-04-10T01:19:58.557Z,9.50
2019-04-10T01:22:29.585Z,9.40
2019-04-10T01:25:00.414Z,9.40
2019-04-10T01:27:32.000Z,9.40
2019-04-10T01:30:04.303Z,9.40
2019-04-10T01:32:36.383Z,9.40
2019-04-10T01:35:07.991Z,9.40
2019-04-10T01:37:48.714Z,9.40
2019-04-10T01:40:11.419Z,9.40
2019-04-10T01:42:42.392Z,9.40
2019-04-10T01:45:13.451Z,9.40
2019-04-10T01:47:45.515Z,9.50
2019-04-10T01:50:16.469Z,9.60
2019-04-10T01:52:47.458Z,9.60
2019-04-10T01:55:25.058Z,9.70
2019-04-10T01:57:52.608Z,9.70
2019-04-10T02:00:24.076Z,9.80
2019-04-10T02:02:55.886Z,9.80
2019-04-10T02:05:26.933Z,9.90
2019-04-10T02:08:06.446Z,9.90
2019-04-10T02:10:30.385Z,9.90
2019-04-10T02:13:01.533Z,10.00
2019-04-10T02:15:32.860Z,10.00
2019-04-10T02:18:05.401Z,10.00
2019-04-10T02:20:36.765Z,10.00
2019-04-10T02:23:07.647Z,10.00
2019-04-10T02:25:39.064Z,10.10
2019-04-10T02:28:11.006Z,10.00
2019-04-10T02:30:43.675Z,10.00
2019-04-10T02:33:15.948Z,10.00
2019-04-10T02:35:47.780Z,10.00
2019-04-10T02:38:35.781Z,9.90
2019-04-10T02:40:52.852Z,9.90
2019-04-10T02:43:25.026Z,9.80
2019-04-10T02:45:57.595Z,9.80
2019-04-10T02:48:29.790Z,9.70
2019-04-10T02:51:01.885Z,9.60
2019-04-10T02:53:32.824Z,9.50
2019-04-10T02:56:05.275Z,9.50
2019-04-10T02:58:38.418Z,9.40
2019-04-10T03:01:09.417Z,9.30
2019-04-10T03:03:40.377Z,9.20
2019-04-10T03:06:31.148Z,9.10
2019-04-10T03:09:18.978Z,9.00
2019-04-10T03:11:35.832Z,8.90
2019-04-10T03:14:07.977Z,8.80
2019-04-10T03:16:39.574Z,8.70
2019-04-10T03:19:11.670Z,8.70
2019-04-10T03:21:43.026Z,8.60
2019-04-10T03:24:13.970Z,8.50
2019-04-10T03:26:45.752Z,8.40
2019-04-10T03:29:17.738Z,8.40
2019-04-10T03:31:50.510Z,8.40
2019-04-10T03:34:34.253Z,8.40
2019-04-10T03:37:04.389Z,8.30
2019-04-10T03:39:35.969Z,8.30
2019-04-10T03:42:06.881Z,8.20
2019-04-10T03:44:38.881Z,8.20
2019-04-10T03:47:11.196Z,8.10
2019-04-10T03:49:42.615Z,8.10
2019-04-10T03:52:13.630Z,8.00
2019-04-10T03:54:44.637Z,8.00
2019-04-10T03:57:15.474Z,8.00
2019-04-10T03:59:47.571Z,7.90
2019-04-10T04:02:18.581Z,7.90
2019-04-10T04:04:50.102Z,7.80
2019-04-10T04:07:21.059Z,7.80
2019-04-10T04:09:51.926Z,7.80
2019-04-10T04:12:22.791Z,7.80
2019-04-10T04:14:53.605Z,7.80
2019-04-10T04:17:24.492Z,7.80
2019-04-10T04:19:55.406Z,7.80
2019-04-10T04:22:26.412Z,7.80
2019-04-10T04:24:58.161Z,7.80
2019-04-10T04:27:29.292Z,7.80
2019-04-10T04:30:00.191Z,7.90
2019-04-10T04:32:31.499Z,7.90
2019-04-10T04:35:02.773Z,7.90
2019-04-10T04:37:34.008Z,7.90
2019-04-10T04:40:05.591Z,7.90
2019-04-10T04:42:36.866Z,7.90
2019-04-10T04:45:08.692Z,7.90
2019-04-10T04:47:39.610Z,7.90
2019-04-10T04:50:10.546Z,7.80
2019-04-10T04:52:41.467Z,7.90
2019-04-10T04:55:12.362Z,7.90
2019-04-10T04:57:43.298Z,7.90
2019-04-10T05:00:15.170Z,7.90
2019-04-10T05:02:59.745Z,7.90
2019-04-10T05:05:35.626Z,7.90
2019-04-10T05:08:08.355Z,7.90
2019-04-10T05:10:39.902Z,7.90
2019-04-10T05:13:11.763Z,8.00
2019-04-10T05:15:43.065Z,8.10
2019-04-10T05:18:14.655Z,8.10
2019-04-10T05:20:49.964Z,8.20
2019-04-10T05:23:18.913Z,8.30
2019-04-10T05:25:52.027Z,8.50
2019-04-10T05:28:24.322Z,8.70
2019-04-10T05:30:56.879Z,8.80
2019-04-10T05:33:28.871Z,8.90
2019-04-10T05:36:01.245Z,9.00
2019-04-10T05:38:33.427Z,9.30
2019-04-10T05:41:04.883Z,9.60
2019-04-10T05:43:36.293Z,9.90
2019-04-10T05:46:07.250Z,10.20
2019-04-10T05:48:39.774Z,10.60
2019-04-10T05:51:10.749Z,11.10
2019-04-10T05:53:41.652Z,11.60
2019-04-10T05:56:12.460Z,11.90
2019-04-10T05:58:43.329Z,12.30
2019-04-10T06:01:14.424Z,13.00
2019-04-10T06:03:47.211Z,13.50
2019-04-10T06:06:18.254Z,13.80
2019-04-10T06:08:49.161Z,14.30
2019-04-10T06:11:20.542Z,14.90
2019-04-10T06:13:52.630Z,15.20
2019-04-10T06:16:24.000Z,15.50
2019-04-10T06:18:55.554Z,16.10
2019-04-10T06:21:27.094Z,16.80
2019-04-10T06:24:00.169Z,17.60
2019-04-10T06:26:32.508Z,18.30
2019-04-10T06:29:04.449Z,19.10
2019-04-10T06:31:36.792Z,19.60
2019-04-10T06:34:08.901Z,19.70
2019-04-10T06:36:39.954Z,20.00
2019-04-10T06:39:11.049Z,20.00
2019-04-10T06:41:43.101Z,20.30
2019-04-10T06:44:14.683Z,20.90
2019-04-10T06:46:46.541Z,21.90
2019-04-10T06:49:17.648Z,22.80
2019-04-10T06:51:49.382Z,23.40
2019-04-10T06:54:23.065Z,24.10
2019-04-10T06:56:54.551Z,24.50
2019-04-10T06:59:26.589Z,24.60
2019-04-10T07:02:11.374Z,24.70
2019-04-10T07:04:43.103Z,24.80
2019-04-10T07:07:08.879Z,24.80
2019-04-10T07:09:35.994Z,24.40
2019-04-10T07:12:07.938Z,23.70
2019-04-10T07:14:43.895Z,22.60
2019-04-10T07:17:13.929Z,21.50
2019-04-10T07:19:45.639Z,20.80
2019-04-10T07:22:17.736Z,20.50
2019-04-10T07:24:51.288Z,20.20
2019-04-10T07:27:21.819Z,20.00
2019-04-10T07:29:56.566Z,19.70
2019-04-10T07:32:25.741Z,19.90
2019-04-10T07:34:58.302Z,20.20
2019-04-10T07:37:29.308Z,20.30
2019-04-10T07:40:04.081Z,20.60
2019-04-10T07:42:37.982Z,20.90
2019-04-10T07:45:07.003Z,21.20
2019-04-10T07:47:38.139Z,21.30
2019-04-10T07:50:10.243Z,21.50
2019-04-10T07:52:41.496Z,21.60
2019-04-10T07:55:12.887Z,21.90
2019-04-10T07:57:47.229Z,22.20
2019-04-10T08:00:16.719Z,22.80
2019-04-10T08:02:47.617Z,23.40
2019-04-10T08:05:18.885Z,24.00
2019-04-10T08:07:49.889Z,24.80
2019-04-10T08:10:21.165Z,25.20
2019-04-10T08:12:53.939Z,25.60
2019-04-10T08:15:25.172Z,26.60
2019-04-10T08:17:56.503Z,27.90
2019-04-10T08:20:28.438Z,29.60
2019-04-10T08:22:59.717Z,30.80
2019-04-10T08:25:31.098Z,31.20
2019-04-10T08:28:02.759Z,32.10
2019-04-10T08:30:34.175Z,33.30
2019-04-10T08:33:06.145Z,34.10
2019-04-10T08:35:37.801Z,34.50
2019-04-10T08:38:09.735Z,34.90
2019-04-10T08:40:40.697Z,35.40
2019-04-10T08:43:11.805Z,35.80
2019-04-10T08:45:47.068Z,36.50
2019-04-10T08:48:15.567Z,37.20
2019-04-10T08:50:46.450Z,37.20
2019-04-10T08:53:18.116Z,37.70
2019-04-10T08:55:49.045Z,37.80
2019-04-10T08:58:20.860Z,37.80
2019-04-10T09:00:52.998Z,37.60
2019-04-10T09:03:24.649Z,37.60
2019-04-10T09:05:56.726Z,37.00
2019-04-10T09:08:28.725Z,36.40
2019-04-10T09:11:00.867Z,36.00
2019-04-10T09:13:32.667Z,36.10
2019-04-10T09:16:04.549Z,36.20
2019-04-10T09:18:35.439Z,36.10
2019-04-10T09:21:07.032Z,35.30
2019-04-10T09:23:44.590Z,34.20
2019-04-10T09:26:11.382Z,32.80
2019-04-10T09:28:43.395Z,31.70
2019-04-10T09:31:15.503Z,31.40
2019-04-10T09:33:47.435Z,31.70
2019-04-10T09:36:19.675Z,31.80
2019-04-10T09:38:50.851Z,31.20
2019-04-10T09:41:21.692Z,30.50
2019-04-10T09:43:52.531Z,30.00
2019-04-10T09:46:23.369Z,29.40
2019-04-10T09:48:54.336Z,28.80
2019-04-10T09:51:25.601Z,28.00
2019-04-10T09:53:57.371Z,27.60
2019-04-10T09:56:28.515Z,27.00
2019-04-10T09:58:59.442Z,26.70
2019-04-10T10:01:30.367Z,26.20
2019-04-10T10:04:02.368Z,25.50
2019-04-10T10:06:36.300Z,25.10
2019-04-10T10:09:08.280Z,24.80
2019-04-10T10:11:39.659Z,24.40
2019-04-10T10:14:10.758Z,24.20
2019-04-10T10:16:42.202Z,24.20
2019-04-10T10:19:14.101Z,24.10
2019-04-10T10:21:45.259Z,24.00
2019-04-10T10:24:16.318Z,24.30
2019-04-10T10:26:47.246Z,25.10
2019-04-10T10:29:18.103Z,25.70
2019-04-10T10:31:50.770Z,25.90
2019-04-10T10:34:22.601Z,25.70
2019-04-10T10:36:54.547Z,25.40
2019-04-10T10:39:26.444Z,24.90
2019-04-10T10:41:58.566Z,24.50
2019-04-10T10:44:30.498Z,24.20
2019-04-10T10:47:02.060Z,23.90
2019-04-10T10:49:33.465Z,23.60
2019-04-10T10:52:04.798Z,23.50
2019-04-10T10:54:36.871Z,23.00
2019-04-10T10:57:08.830Z,22.60
2019-04-10T10:59:41.871Z,22.50
2019-04-10T11:02:12.763Z,22.40
2019-04-10T11:04:43.681Z,22.40
2019-04-10T11:07:14.569Z,22.50
2019-04-10T11:09:45.437Z,22.60
2019-04-10T11:12:16.336Z,22.70
2019-04-10T11:14:48.168Z,22.80
2019-04-10T11:17:19.920Z,23.10
2019-04-10T11:19:53.282Z,23.20
2019-04-10T11:22:43.199Z,23.40
2019-04-10T11:25:15.582Z,23.70
2019-04-10T11:27:47.529Z,23.80
2019-04-10T11:30:18.632Z,23.60
2019-04-10T11:32:50.690Z,23.50
2019-04-10T11:35:24.138Z,23.60
2019-04-10T11:37:59.030Z,23.50
2019-04-10T11:40:28.007Z,23.50
2019-04-10T11:43:02.807Z,23.40
2019-04-10T11:45:40.911Z,23.40
2019-04-10T11:48:06.004Z,23.40
2019-04-10T11:50:38.553Z,23.30
2019-04-10T11:53:10.647Z,23.30
2019-04-10T11:55:46.911Z,23.30
2019-04-10T12:00:51.784Z,22.90
2019-04-10T12:03:19.284Z,22.60
2019-04-10T12:05:51.801Z,22.20
2019-04-10T12:08:44.724Z,22.00
2019-04-10T12:13:28.315Z,21.80
2019-04-10T12:15:59.238Z,21.70
2019-04-10T12:18:30.787Z,21.50
2019-04-10T12:21:02.049Z,21.30
2019-04-10T12:23:33.420Z,21.20
2019-04-10T12:26:04.336Z,21.10
2019-04-10T12:28:36.119Z,20.90
2019-04-10T12:31:07.934Z,20.70
2019-04-10T12:33:39.966Z,20.60
2019-04-10T12:36:12.145Z,20.50
2019-04-10T12:38:44.056Z,20.30
2019-04-10T12:41:15.147Z,20.20
2019-04-10T12:43:47.413Z,20.10
2019-04-10T12:46:19.133Z,20.10
2019-04-10T12:48:50.692Z,20.00
2019-04-10T12:51:22.889Z,19.90
2019-04-10T12:53:54.074Z,19.90
2019-04-10T12:56:26.148Z,19.90
2019-04-10T12:58:57.248Z,19.80
2019-04-10T13:01:28.885Z,19.70
2019-04-10T13:03:59.929Z,19.60
2019-04-10T13:06:31.728Z,19.50
2019-04-10T13:09:10.252Z,19.40
2019-04-10T13:11:38.667Z,19.40
2019-04-10T13:14:10.470Z,19.40
2019-04-10T13:16:42.760Z,19.30
2019-04-10T13:19:14.192Z,19.20
2019-04-10T13:21:45.085Z,19.10
2019-04-10T13:24:15.951Z,19.10
2019-04-10T13:26:46.897Z,19.20
2019-04-10T13:29:18.350Z,19.20
2019-04-10T13:31:49.269Z,19.20
2019-04-10T13:34:21.450Z,19.30
2019-04-10T13:36:53.371Z,19.30
2019-04-10T13:39:24.678Z,19.30
2019-04-10T13:41:56.677Z,19.30
2019-04-10T13:44:28.787Z,19.30
2019-04-10T13:46:59.714Z,19.40
2019-04-10T13:49:30.751Z,19.30
2019-04-10T13:52:01.829Z,19.40
2019-04-10T13:54:32.791Z,19.40
2019-04-10T13:57:03.887Z,19.40
2019-04-10T13:59:35.241Z,19.50
2019-04-10T14:02:08.653Z,19.50
2019-04-10T14:04:40.913Z,19.30
2019-04-10T14:07:12.085Z,19.30
2019-04-10T14:09:48.233Z,19.20
2019-04-10T14:12:16.646Z,19.10
2019-04-10T14:14:47.509Z,19.00
2019-04-10T14:17:19.517Z,19.00
2019-04-10T14:19:50.387Z,18.90
2019-04-10T14:22:21.857Z,18.90
2019-04-10T14:24:53.627Z,18.80
2019-04-10T14:27:26.503Z,18.70
2019-04-10T14:29:58.690Z,18.60
2019-04-10T14:32:35.723Z,18.50
2019-04-10T14:35:09.658Z,18.30
2019-04-10T14:37:41.331Z,18.20
2019-04-10T14:40:16.018Z,18.10
2019-04-10T14:42:47.194Z,17.90
2019-04-10T14:45:19.414Z,17.80
2019-04-10T14:47:50.319Z,17.70
2019-04-10T14:50:21.913Z,17.60
2019-04-10T14:52:53.806Z,17.40
2019-04-10T14:55:24.906Z,17.30
2019-04-10T14:57:56.025Z,17.20
2019-04-10T15:00:36.953Z,17.00
2019-04-10T15:03:08.478Z,17.00
2019-04-10T15:05:47.763Z,17.00
2019-04-10T15:08:12.282Z,16.90
2019-04-10T15:10:43.286Z,16.90
2019-04-10T15:13:19.266Z,16.80
2019-04-10T15:15:48.272Z,16.80
2019-04-10T15:18:20.380Z,16.80
2019-04-10T15:20:51.490Z,16.90
2019-04-10T15:23:22.459Z,16.90
2019-04-10T15:25:53.502Z,17.00
2019-04-10T15:28:25.395Z,17.00
2019-04-10T15:30:57.588Z,17.00
2019-04-10T15:33:28.974Z,17.00
2019-04-10T15:36:00.245Z,17.00
2019-04-10T15:38:31.342Z,17.10
2019-04-10T15:41:02.978Z,17.00
2019-04-10T15:43:35.045Z,16.90
2019-04-10T15:46:06.663Z,16.80
2019-04-10T15:48:37.798Z,16.90
2019-04-10T15:51:10.404Z,16.90
2019-04-10T15:53:41.430Z,16.90
2019-04-10T15:56:12.459Z,16.80
2019-04-10T15:58:43.770Z,16.80
2019-04-10T16:01:19.185Z,16.70
2019-04-10T16:03:50.615Z,16.70
2019-04-10T16:06:22.974Z,16.60
2019-04-10T16:08:54.647Z,16.70
2019-04-10T16:11:36.220Z,16.60
2019-04-10T16:14:17.926Z,16.50
2019-04-10T16:17:04.593Z,16.40
2019-04-10T16:19:49.780Z,16.40
2019-04-10T16:22:33.402Z,16.40
2019-04-10T16:25:07.842Z,16.40
2019-04-10T16:27:39.111Z,16.30
2019-04-10T16:30:15.677Z,16.20
2019-04-10T16:32:46.899Z,16.20
2019-04-10T16:35:18.999Z,16.20
2019-04-10T16:37:50.110Z,16.10
2019-04-10T16:40:22.696Z,16.00
2019-04-10T16:42:55.091Z,15.90
2019-04-10T16:45:26.529Z,15.90
2019-04-10T16:47:58.782Z,15.80
2019-04-10T16:50:30.025Z,15.80
2019-04-10T16:53:01.419Z,15.80
2019-04-10T16:55:34.619Z,15.70
2019-04-10T16:58:05.718Z,15.60
2019-04-10T17:00:37.684Z,15.50
2019-04-10T17:03:09.507Z,15.40
2019-04-10T17:05:41.754Z,15.40
2019-04-10T17:08:13.970Z,15.20
2019-04-10T17:10:46.578Z,15.10
2019-04-10T17:13:18.305Z,15.00
2019-04-10T17:15:53.564Z,14.80
2019-04-10T17:18:26.076Z,14.70
2019-04-10T17:21:00.888Z,14.60
2019-04-10T17:23:32.519Z,14.50
2019-04-10T17:26:06.582Z,14.30
2019-04-10T17:28:38.659Z,14.20
2019-04-10T17:31:10.940Z,14.00
2019-04-10T17:33:42.221Z,13.80
2019-04-10T17:36:13.288Z,13.60
2019-04-10T17:38:44.943Z,13.50
2019-04-10T17:41:17.542Z,13.30
2019-04-10T17:43:49.561Z,13.20
2019-04-10T17:46:20.683Z,12.90
2019-04-10T17:48:51.796Z,12.70
2019-04-10T17:51:22.717Z,12.60
2019-04-10T17:53:53.858Z,12.40
2019-04-10T17:56:24.709Z,12.30
2019-04-10T17:58:56.067Z,12.10
2019-04-10T18:01:27.243Z,12.00
2019-04-10T18:04:01.363Z,11.80
2019-04-10T18:06:31.142Z,11.70
2019-04-10T18:09:05.424Z,11.60
2019-04-10T18:11:37.511Z,11.50
2019-04-10T18:14:09.153Z,11.40
2019-04-10T18:16:40.300Z,11.30
2019-04-10T18:19:14.176Z,11.20
2019-04-10T18:21:44.394Z,11.10
2019-04-10T18:24:15.852Z,11.00
2019-04-10T18:26:50.481Z,10.90
2019-04-10T18:29:19.853Z,10.80
2019-04-10T18:31:52.153Z,10.70
2019-04-10T18:34:23.306Z,10.70
2019-04-10T18:36:54.570Z,10.60
2019-04-10T18:39:26.151Z,10.50
2019-04-10T18:41:59.476Z,10.50
2019-04-10T18:44:31.142Z,10.40
2019-04-10T18:47:02.819Z,10.40
2019-04-10T18:49:33.802Z,10.30
2019-04-10T18:52:05.389Z,10.30
2019-04-10T18:54:36.290Z,10.20
2019-04-10T18:57:07.421Z,10.20
2019-04-10T18:59:53.845Z,10.10
2019-04-10T19:02:41.312Z,10.00
2019-04-10T19:05:19.297Z,10.00
2019-04-10T19:07:50.372Z,9.90
2019-04-10T19:10:22.121Z,9.80
2019-04-10T19:12:53.203Z,9.70
2019-04-10T19:15:24.410Z,9.60
2019-04-10T19:17:55.387Z,9.60
2019-04-10T19:20:26.793Z,9.50
2019-04-10T19:22:58.993Z,9.40
2019-04-10T19:25:30.343Z,9.40
2019-04-10T19:28:01.268Z,9.30
2019-04-10T19:30:43.966Z,9.30
2019-04-10T19:33:16.136Z,9.20
2019-04-10T19:35:47.605Z,9.10
2019-04-10T19:38:18.988Z,9.10
2019-04-10T19:40:52.038Z,9.10
2019-04-10T19:43:24.104Z,9.00
2019-04-10T19:45:56.309Z,9.00
2019-04-10T19:48:27.714Z,8.90
2019-04-10T19:50:59.651Z,8.90
2019-04-10T19:53:31.946Z,8.80
2019-04-10T19:56:03.023Z,8.70
2019-04-10T19:58:35.068Z,8.70
2019-04-10T20:01:07.154Z,8.60
2019-04-10T20:03:38.190Z,8.60
2019-04-10T20:06:09.205Z,8.50
2019-04-10T20:08:40.143Z,8.50
2019-04-10T20:11:12.883Z,8.50
2019-04-10T20:13:44.946Z,8.50
2019-04-10T20:16:17.280Z,8.40
2019-04-10T20:18:48.744Z,8.40
2019-04-10T20:21:19.948Z,8.30
2019-04-10T20:23:52.270Z,8.30
2019-04-10T20:26:23.466Z,8.30
2019-04-10T20:28:54.719Z,8.20
2019-04-10T20:31:29.651Z,8.10
2019-04-10T20:34:00.606Z,8.10
2019-04-10T20:36:31.643Z,8.10
2019-04-10T20:39:03.478Z,8.00
2019-04-10T20:41:46.549Z,8.00
2019-04-10T20:44:07.628Z,8.00
2019-04-10T20:46:38.510Z,7.90
2019-04-10T20:49:10.016Z,7.90
2019-04-10T20:51:41.997Z,7.90
2019-04-10T20:54:14.846Z,7.80
2019-04-10T20:56:46.805Z,7.80
2019-04-10T20:59:19.677Z,7.80
2019-04-10T21:01:51.493Z,7.80
2019-04-10T21:04:27.631Z,7.70
2019-04-10T21:07:00.783Z,7.70
2019-04-10T21:09:34.108Z,7.70
2019-04-10T21:12:11.675Z,7.60
2019-04-10T21:14:41.399Z,7.60
2019-04-10T21:17:14.326Z,7.60
2019-04-10T21:19:45.535Z,7.60
2019-04-10T21:22:17.008Z,7.50
2019-04-10T21:24:49.912Z,7.50
2019-04-10T21:27:22.782Z,7.50
2019-04-10T21:29:59.220Z,7.40
2019-04-10T21:32:47.969Z,7.40
2019-04-10T21:35:22.883Z,7.40
2019-04-10T21:37:54.845Z,7.40
2019-04-10T21:40:25.810Z,7.30
2019-04-10T21:42:57.100Z,7.30
2019-04-10T21:45:29.822Z,7.20
2019-04-10T21:48:00.671Z,7.20
2019-04-10T21:50:31.541Z,7.20
2019-04-10T21:53:02.375Z,7.20
2019-04-10T21:55:33.610Z,7.10
2019-04-10T21:58:04.527Z,7.10
2019-04-10T22:00:53.416Z,7.10
2019-04-10T22:03:25.319Z,7.10
2019-04-10T22:06:13.369Z,7.00
2019-04-10T22:08:52.057Z,7.00
2019-04-10T22:11:25.238Z,7.00
2019-04-10T22:13:56.914Z,6.90
2019-04-10T22:16:28.782Z,6.90
2019-04-10T22:18:59.677Z,6.90
2019-04-10T22:21:31.268Z,6.80
2019-04-10T22:24:02.229Z,6.80
2019-04-10T22:26:33.997Z,6.80
2019-04-10T22:29:05.607Z,6.70
2019-04-10T22:31:37.407Z,6.70
2019-04-10T22:34:10.228Z,6.70
2019-04-10T22:36:41.546Z,6.60
2019-04-10T22:39:16.739Z,6.60
2019-04-10T22:41:48.322Z,6.60
2019-04-10T22:44:19.747Z,6.50
2019-04-10T22:46:52.355Z,6.50
2019-04-10T22:49:23.265Z,6.50
2019-04-10T22:51:54.275Z,6.40
2019-04-10T22:54:26.230Z,6.40
2019-04-10T22:56:58.470Z,6.40
2019-04-10T22:59:30.555Z,6.40
2019-04-10T23:02:07.329Z,6.30
2019-04-10T23:04:35.139Z,6.30
2019-04-10T23:07:06.082Z,6.30
2019-04-10T23:09:37.980Z,6.20
2019-04-10T23:12:09.862Z,6.20
2019-04-10T23:14:40.848Z,6.20
2019-04-10T23:17:13.151Z,6.20
2019-04-10T23:19:44.586Z,6.20
2019-04-10T23:22:16.823Z,6.10
2019-04-10T23:24:47.881Z,6.10
2019-04-10T23:27:19.820Z,6.00
2019-04-10T23:29:51.132Z,6.00
2019-04-10T23:32:23.357Z,6.00
2019-04-10T23:34:57.280Z,6.00
2019-04-10T23:37:28.952Z,5.90
2019-04-10T23:40:00.740Z,5.90
2019-04-10T23:42:32.380Z,5.80
2019-04-10T23:45:03.570Z,5.80
2019-04-10T23:47:34.545Z,5.80
2019-04-10T23:50:06.107Z,5.80
2019-04-10T23:52:38.104Z,5.80
2019-04-10T23:55:10.103Z,5.70
2019-04-10T23:57:41.620Z,5.70
